Nearby METAR Reports - Updated every 30 to 60 minutes

KMYV - Marysville, California, USA
Distance from station: SE 6mi, 9.6km
Updated: Thu, 13-Dec-2018 11:53pm PST
Mist, Clear
Mist, Clear
 Wind from E
Wind: E 3 mph , 6 km/h
Temperature: 39°F , 4°C
Dew Point: 36°F , 2°C
Humidity: 87%
Barometer: 30.17 inHg , 1021.7 hPa
Summary: Mist
Clouds: Clear
Visibility: 5 miles , 8 km
2018/12/14 07:53 KMYV 140753Z AUTO 08003KT 5SM BR CLR 04/02 A3017 RMK AO2 SLP220 T00390022 401560017
KOVE - Oroville, California, USA
Distance from station: 0 27mi, 45km
Updated: Thu, 13-Dec-2018 11:53pm PST
Mist, Clear
Mist, Clear
 Wind from calm
Wind: Calm
Temperature: 43°F , 6°C
Dew Point: 39°F , 4°C
Humidity: 87%
Barometer: 30.17 inHg , 1021.7 hPa
Summary: Mist
Clouds: Clear
Visibility: 5 miles , 8 km
2018/12/14 07:53 KOVE 140753Z AUTO 00000KT 5SM BR CLR 06/04 A3017 RMK AO2 SLP219 T00560039 401440050
 
KCIC - Chico Municipal, California, USA
Distance from station: NNW 50mi, 80.6km
Updated: Thu, 13-Dec-2018 10:55pm PST
NOT Current
Clear
Clear
 Wind from ENE
Wind: ENE 5 mph , 7 km/h
Temperature: 41°F , 5°C
Wind Chill: 38°F , 3°C
Dew Point: 37°F , 3°C
Humidity: 87%
Barometer: 30.18 inHg , 1022 hPa
Clouds: Clear
Visibility: 10 miles , 16 km
2018/12/14 06:55 KCIC 140655Z AUTO 06004KT 10SM CLR 05/03 A3018 RMK AO1
KRBL - Red Bluff, California, USA
Distance from station: NNW 85mi, 137km
Updated: Thu, 13-Dec-2018 11:54pm PST
Clear
Clear
 Wind from WNW
Wind: WNW 6 mph , 9 km/h
Temperature: 37°F , 3°C
Wind Chill: 32°F , 0°C
Dew Point: 30°F , -1°C
Humidity: 75%
Barometer: 30.16 inHg , 1021.3 hPa
Clouds: Clear
Visibility: 10 miles , 16 km
2018/12/14 07:54 KRBL 140754Z AUTO 30005KT 10SM CLR 03/M01 A3016 RMK AO2 SLP212 T00281011 401560017
 
KRDD - Redding, California, USA
Distance from station: N 110mi, 177km
Updated: Thu, 13-Dec-2018 11:53pm PST
Mist, Clear
Mist, Clear
 Wind from calm
Wind: Calm
Temperature: 36°F , 2°C
Dew Point: 32°F , 0°C
Humidity: 87%
Barometer: 30.14 inHg , 1020.7 hPa
Summary: Mist
Clouds: Clear
Visibility: 6 miles , 10 km
2018/12/14 07:53 KRDD 140753Z AUTO 00000KT 6SM BR CLR 02/00 A3014 RMK AO2 SLP207 T00220000 401560006
KMHS - Mount Shasta, California, USA
Distance from station: N 170mi, 274km
Updated: Thu, 13-Dec-2018 11:56pm PST
Clear
Clear
 Wind from calm
Wind: Calm
Temperature: 39°F , 4°C
Dew Point: 18°F , -8°C
Humidity: 42%
Barometer: 30.10 inHg , 1019.3 hPa
Clouds: Clear
Visibility: 10 miles , 16 km
2018/12/14 07:56 KMHS 140756Z AUTO 00000KT 10SM CLR 04/M08 A3010 RMK AO2 SLP213 T00391078 401331056
 
KSIY - Montague/Siskiyou, California, USA
Distance from station: N 214mi, 3441km
Updated: Thu, 13-Dec-2018 11:53pm PST
Clear
Clear
 Wind from varies
Wind: varies 3 mph , 6 km/h
Temperature: 28°F , -2°C
Dew Point: 25°F , -4°C
Humidity: 86%
Barometer: 30.04 inHg , 1017.3 hPa
Clouds: Clear
Visibility: 10 miles , 16 km
2018/12/14 07:53 KSIY 140753Z AUTO VRB03KT 10SM CLR M02/M04 A3004 RMK AO2 SLP197 T10171039 400831056
KO54 - Weaverville, California, USA
Distance from station: NW 161mi, 259km
Updated: Thu, 13-Dec-2018 10:55pm PST
NOT Current
Few Clouds
Few Clouds
 Wind from calm
Wind: Calm
Temperature: 28°F , -2°C
Dew Point: 27°F , -3°C
Humidity: 93%
Barometer: 30.14 inHg , 1020.7 hPa
Clouds: Few Clouds
Visibility: 5 miles , 8 km
Cloud details: Few Clouds 400 ft
2018/12/14 06:55 KO54 140655Z AUTO 00000KT 5SM FEW004 M02/M03 A3014 RMK AO1
 
KO86 - Trinity Center, California, USA
Distance from station: NNW 181mi, 291km
Updated: Thu, 13-Dec-2018 11:50pm PST
Clear
Clear
 Wind from W
Wind: W 3 mph , 6 km/h
Temperature: 28°F , -2°C
Dew Point: 27°F , -3°C
Humidity: 93%
Barometer: 30.16 inHg , 1021.3 hPa
Clouds: Clear
Visibility: 10 miles , 16 km
2018/12/14 07:50 KO86 140750Z AUTO 27003KT 10SM CLR M02/M03 A3016 RMK AO1
KCEC - Crescent City, California, USA
Distance from station: SE 355mi, 571km
Updated: Thu, 13-Dec-2018 11:56pm PST
Clear
Clear
 Wind from ESE
Wind: ESE 7 mph , 11 km/h
Temperature: 43°F , 6°C
Wind Chill: 39°F , 4°C
Dew Point: 39°F , 4°C
Humidity: 87%
Barometer: 29.99 inHg , 1015.6 hPa
Clouds: Clear
Visibility: 10 miles , 16 km
2018/12/14 07:56 KCEC 140756Z AUTO 11006KT 10SM CLR 06/04 A2999 RMK AO2 SLP156 T00610039 401170017
 
KACV - Arcata/Eureka, California, USA
Distance from station: WNW 259mi, 417km
Updated: Thu, 13-Dec-2018 11:53pm PST
Clear
Clear
 Wind from E
Wind: E 7 mph , 11 km/h
Temperature: 43°F , 6°C
Wind Chill: 39°F , 4°C
Dew Point: 39°F , 4°C
Humidity: 87%
Barometer: 30.00 inHg , 1015.9 hPa
Clouds: Clear
Visibility: 10 miles , 16 km
2018/12/14 07:53 KACV 140753Z AUTO 08006KT 10SM CLR 06/04 A3000 RMK AO2 SLP165 T00560039 401330028
KFOT - Fortuna, California, USA
Distance from station: S 245mi, 395km
Updated: Thu, 13-Dec-2018 11:55pm PST
Clear
Clear
 Wind from SSE
Wind: SSE 6 mph , 9 km/h
Temperature: 46°F , 8°C
Wind Chill: 43°F , 6°C
Dew Point: 37°F , 3°C
Humidity: 71%
Barometer: 30.00 inHg , 1015.9 hPa
Clouds: Clear
Visibility: 10 miles , 16 km
2018/12/14 07:55 KFOT 140755Z AUTO 16005KT 10SM CLR 08/03 A3000 RMK AO1
 
KAAT - Alturas, California, USA
Distance from station: E 256mi, 412km
Updated: Thu, 13-Dec-2018 11:55pm PST
Clear
Clear
 Wind from WNW
Wind: WNW 3 mph , 6 km/h
Temperature: 27°F , -3°C
Dew Point: 21°F , -6°C
Humidity: 80%
Barometer: 30.14 inHg , 1020.7 hPa
Clouds: Clear
Visibility: 9 miles , 14 km
2018/12/14 07:55 KAAT 140755Z AUTO 30003KT 9SM CLR M03/M06 A3014 RMK AO2 SLP214 T10281061 401061067
KSVE - Susanville Muni, California, USA
Distance from station: E 241mi, 145km
Updated: Thu, 13-Dec-2018 10:55pm PST
NOT Current
Clear
Clear
 Wind from W
Wind: W 3 mph , 6 km/h
Temperature: 28°F , -2°C
Dew Point: 25°F , -4°C
Humidity: 86%
Barometer: 30.25 inHg , 1024.4 hPa
Clouds: Clear
Visibility: 10 miles , 16 km
2018/12/14 06:55 KSVE 140655Z AUTO 28003KT 10SM CLR M02/M04 A3025 RMK AO2

spacer wunderground wow PWS SWWN Image Map